sensor_id;sensor_type;location;lat;lon;timestamp;P1;durP1;ratioP1;P2;durP2;ratioP2
61903;SDS011;47857;52.270;6.804;2023-04-06T00:01:25;14.30;;;9.15;;
61903;SDS011;47857;52.270;6.804;2023-04-06T00:03:50;13.75;;;8.02;;
61903;SDS011;47857;52.270;6.804;2023-04-06T00:06:16;15.88;;;8.63;;
61903;SDS011;47857;52.270;6.804;2023-04-06T00:08:41;15.98;;;8.90;;
61903;SDS011;47857;52.270;6.804;2023-04-06T00:11:08;14.90;;;7.65;;
61903;SDS011;47857;52.270;6.804;2023-04-06T00:13:33;10.32;;;7.18;;
61903;SDS011;47857;52.270;6.804;2023-04-06T00:15:59;13.57;;;6.93;;
61903;SDS011;47857;52.270;6.804;2023-04-06T00:18:25;10.50;;;6.47;;
61903;SDS011;47857;52.270;6.804;2023-04-06T00:20:50;13.77;;;6.20;;
61903;SDS011;47857;52.270;6.804;2023-04-06T00:23:16;9.80;;;6.15;;
61903;SDS011;47857;52.270;6.804;2023-04-06T00:25:42;11.80;;;5.85;;
61903;SDS011;47857;52.270;6.804;2023-04-06T00:28:07;10.40;;;6.20;;
61903;SDS011;47857;52.270;6.804;2023-04-06T00:30:33;8.75;;;5.82;;
61903;SDS011;47857;52.270;6.804;2023-04-06T00:32:58;10.25;;;5.82;;
61903;SDS011;47857;52.270;6.804;2023-04-06T00:35:24;10.95;;;5.70;;
61903;SDS011;47857;52.270;6.804;2023-04-06T00:37:49;9.98;;;5.88;;
61903;SDS011;47857;52.270;6.804;2023-04-06T00:40:15;10.13;;;5.50;;
61903;SDS011;47857;52.270;6.804;2023-04-06T00:42:41;11.13;;;6.13;;
61903;SDS011;47857;52.270;6.804;2023-04-06T00:45:07;9.50;;;5.50;;
61903;SDS011;47857;52.270;6.804;2023-04-06T00:47:33;10.38;;;5.90;;
61903;SDS011;47857;52.270;6.804;2023-04-06T00:49:59;9.35;;;5.78;;
61903;SDS011;47857;52.270;6.804;2023-04-06T00:52:25;11.82;;;5.55;;
61903;SDS011;47857;52.270;6.804;2023-04-06T00:54:52;9.80;;;6.20;;
61903;SDS011;47857;52.270;6.804;2023-04-06T00:57:19;9.52;;;5.45;;
61903;SDS011;47857;52.270;6.804;2023-04-06T00:59:49;8.98;;;5.65;;
61903;SDS011;47857;52.270;6.804;2023-04-06T01:02:15;11.52;;;6.22;;
61903;SDS011;47857;52.270;6.804;2023-04-06T01:04:46;9.15;;;6.20;;
61903;SDS011;47857;52.270;6.804;2023-04-06T01:07:22;9.63;;;5.80;;
61903;SDS011;47857;52.270;6.804;2023-04-06T01:10:02;11.60;;;6.28;;
61903;SDS011;47857;52.270;6.804;2023-04-06T01:12:30;15.10;;;6.00;;
61903;SDS011;47857;52.270;6.804;2023-04-06T01:14:56;7.85;;;5.55;;
61903;SDS011;47857;52.270;6.804;2023-04-06T01:17:23;11.80;;;6.15;;
61903;SDS011;47857;52.270;6.804;2023-04-06T01:19:49;11.43;;;6.25;;
61903;SDS011;47857;52.270;6.804;2023-04-06T01:22:23;11.65;;;6.20;;
61903;SDS011;47857;52.270;6.804;2023-04-06T01:24:55;11.93;;;6.95;;
61903;SDS011;47857;52.270;6.804;2023-04-06T01:27:28;11.25;;;6.63;;
61903;SDS011;47857;52.270;6.804;2023-04-06T01:30:18;11.18;;;6.47;;
61903;SDS011;47857;52.270;6.804;2023-04-06T01:32:51;11.38;;;6.50;;
61903;SDS011;47857;52.270;6.804;2023-04-06T01:35:26;14.57;;;6.88;;
61903;SDS011;47857;52.270;6.804;2023-04-06T01:38:07;11.45;;;6.78;;
61903;SDS011;47857;52.270;6.804;2023-04-06T01:40:35;10.50;;;6.50;;
61903;SDS011;47857;52.270;6.804;2023-04-06T01:43:01;13.02;;;7.15;;
61903;SDS011;47857;52.270;6.804;2023-04-06T01:45:36;11.07;;;6.88;;
61903;SDS011;47857;52.270;6.804;2023-04-06T01:48:12;10.68;;;6.50;;
61903;SDS011;47857;52.270;6.804;2023-04-06T01:50:38;11.55;;;6.78;;
61903;SDS011;47857;52.270;6.804;2023-04-06T01:53:04;12.73;;;7.03;;
61903;SDS011;47857;52.270;6.804;2023-04-06T01:55:31;10.80;;;7.10;;
61903;SDS011;47857;52.270;6.804;2023-04-06T01:58:14;12.10;;;7.60;;
61903;SDS011;47857;52.270;6.804;2023-04-06T02:00:40;12.43;;;6.93;;
61903;SDS011;47857;52.270;6.804;2023-04-06T02:03:06;11.63;;;6.93;;
61903;SDS011;47857;52.270;6.804;2023-04-06T02:05:32;12.35;;;6.80;;
61903;SDS011;47857;52.270;6.804;2023-04-06T02:08:14;13.23;;;7.00;;
61903;SDS011;47857;52.270;6.804;2023-04-06T02:10:40;16.83;;;7.45;;
61903;SDS011;47857;52.270;6.804;2023-04-06T02:13:15;12.07;;;6.93;;
61903;SDS011;47857;52.270;6.804;2023-04-06T02:15:46;11.45;;;7.03;;
61903;SDS011;47857;52.270;6.804;2023-04-06T02:18:11;12.35;;;6.88;;
61903;SDS011;47857;52.270;6.804;2023-04-06T02:20:37;11.43;;;6.95;;
61903;SDS011;47857;52.270;6.804;2023-04-06T02:23:02;12.70;;;6.88;;
61903;SDS011;47857;52.270;6.804;2023-04-06T02:25:28;10.98;;;6.88;;
61903;SDS011;47857;52.270;6.804;2023-04-06T02:27:53;10.88;;;6.57;;
61903;SDS011;47857;52.270;6.804;2023-04-06T02:30:19;12.07;;;6.88;;
61903;SDS011;47857;52.270;6.804;2023-04-06T02:32:45;12.68;;;7.53;;
61903;SDS011;47857;52.270;6.804;2023-04-06T02:35:11;10.27;;;6.57;;
61903;SDS011;47857;52.270;6.804;2023-04-06T02:37:39;13.60;;;7.43;;
61903;SDS011;47857;52.270;6.804;2023-04-06T02:40:04;13.30;;;7.35;;
61903;SDS011;47857;52.270;6.804;2023-04-06T02:42:31;10.70;;;7.13;;
61903;SDS011;47857;52.270;6.804;2023-04-06T02:44:59;10.23;;;6.80;;
61903;SDS011;47857;52.270;6.804;2023-04-06T02:47:29;14.07;;;7.53;;
61903;SDS011;47857;52.270;6.804;2023-04-06T02:49:54;12.73;;;7.03;;
61903;SDS011;47857;52.270;6.804;2023-04-06T02:52:20;10.48;;;6.75;;
61903;SDS011;47857;52.270;6.804;2023-04-06T02:54:46;10.68;;;7.05;;
61903;SDS011;47857;52.270;6.804;2023-04-06T02:57:12;12.63;;;7.15;;
61903;SDS011;47857;52.270;6.804;2023-04-06T02:59:42;11.10;;;6.85;;
61903;SDS011;47857;52.270;6.804;2023-04-06T03:02:22;11.63;;;7.15;;
61903;SDS011;47857;52.270;6.804;2023-04-06T03:04:48;11.43;;;7.22;;
61903;SDS011;47857;52.270;6.804;2023-04-06T03:07:29;10.07;;;7.22;;
61903;SDS011;47857;52.270;6.804;2023-04-06T03:09:54;15.32;;;6.85;;
61903;SDS011;47857;52.270;6.804;2023-04-06T03:12:20;13.63;;;7.30;;
61903;SDS011;47857;52.270;6.804;2023-04-06T03:15:12;12.45;;;7.43;;
61903;SDS011;47857;52.270;6.804;2023-04-06T03:17:41;11.05;;;7.03;;
61903;SDS011;47857;52.270;6.804;2023-04-06T03:20:12;15.65;;;8.38;;
61903;SDS011;47857;52.270;6.804;2023-04-06T03:22:38;11.30;;;7.47;;
61903;SDS011;47857;52.270;6.804;2023-04-06T03:25:06;12.88;;;8.18;;
61903;SDS011;47857;52.270;6.804;2023-04-06T03:27:32;13.07;;;8.05;;
61903;SDS011;47857;52.270;6.804;2023-04-06T03:29:58;12.85;;;7.30;;
61903;SDS011;47857;52.270;6.804;2023-04-06T03:32:30;13.60;;;7.95;;
61903;SDS011;47857;52.270;6.804;2023-04-06T03:34:55;13.02;;;7.97;;
61903;SDS011;47857;52.270;6.804;2023-04-06T03:37:21;14.95;;;7.57;;
61903;SDS011;47857;52.270;6.804;2023-04-06T03:39:51;12.52;;;7.35;;
61903;SDS011;47857;52.270;6.804;2023-04-06T03:42:20;11.80;;;8.07;;
61903;SDS011;47857;52.270;6.804;2023-04-06T03:44:52;12.07;;;7.70;;
61903;SDS011;47857;52.270;6.804;2023-04-06T03:47:18;11.40;;;7.38;;
61903;SDS011;47857;52.270;6.804;2023-04-06T03:49:44;12.07;;;8.05;;
61903;SDS011;47857;52.270;6.804;2023-04-06T03:52:11;18.08;;;10.63;;
61903;SDS011;47857;52.270;6.804;2023-04-06T03:54:37;33.08;;;18.48;;
61903;SDS011;47857;52.270;6.804;2023-04-06T03:57:03;100.55;;;52.08;;
61903;SDS011;47857;52.270;6.804;2023-04-06T03:59:29;57.35;;;29.85;;
61903;SDS011;47857;52.270;6.804;2023-04-06T04:01:55;49.75;;;27.58;;
61903;SDS011;47857;52.270;6.804;2023-04-06T04:04:20;61.63;;;32.67;;
61903;SDS011;47857;52.270;6.804;2023-04-06T04:06:46;25.70;;;14.38;;
61903;SDS011;47857;52.270;6.804;2023-04-06T04:09:12;16.17;;;9.70;;
61903;SDS011;47857;52.270;6.804;2023-04-06T04:11:37;16.52;;;9.55;;
61903;SDS011;47857;52.270;6.804;2023-04-06T04:14:03;15.13;;;8.73;;
61903;SDS011;47857;52.270;6.804;2023-04-06T04:16:29;13.05;;;8.30;;
61903;SDS011;47857;52.270;6.804;2023-04-06T04:18:55;15.13;;;8.77;;
61903;SDS011;47857;52.270;6.804;2023-04-06T04:21:23;14.25;;;8.88;;
61903;SDS011;47857;52.270;6.804;2023-04-06T04:23:48;15.88;;;8.95;;
61903;SDS011;47857;52.270;6.804;2023-04-06T04:26:14;12.95;;;8.25;;
61903;SDS011;47857;52.270;6.804;2023-04-06T04:28:43;13.90;;;8.73;;
61903;SDS011;47857;52.270;6.804;2023-04-06T04:31:08;16.15;;;7.88;;
61903;SDS011;47857;52.270;6.804;2023-04-06T04:33:34;13.55;;;9.50;;
61903;SDS011;47857;52.270;6.804;2023-04-06T04:36:05;15.77;;;8.68;;
61903;SDS011;47857;52.270;6.804;2023-04-06T04:38:37;13.82;;;8.40;;
61903;SDS011;47857;52.270;6.804;2023-04-06T04:41:02;14.35;;;9.00;;
61903;SDS011;47857;52.270;6.804;2023-04-06T04:43:29;12.80;;;8.65;;
61903;SDS011;47857;52.270;6.804;2023-04-06T04:45:55;13.27;;;8.80;;
61903;SDS011;47857;52.270;6.804;2023-04-06T04:48:33;12.68;;;8.10;;
61903;SDS011;47857;52.270;6.804;2023-04-06T04:51:01;12.48;;;8.15;;
61903;SDS011;47857;52.270;6.804;2023-04-06T04:53:36;14.70;;;8.65;;
61903;SDS011;47857;52.270;6.804;2023-04-06T04:56:13;14.18;;;8.75;;
61903;SDS011;47857;52.270;6.804;2023-04-06T04:58:39;12.55;;;8.95;;
61903;SDS011;47857;52.270;6.804;2023-04-06T05:01:05;16.98;;;9.13;;
61903;SDS011;47857;52.270;6.804;2023-04-06T05:03:31;13.70;;;9.05;;
61903;SDS011;47857;52.270;6.804;2023-04-06T05:06:01;16.13;;;9.23;;
61903;SDS011;47857;52.270;6.804;2023-04-06T05:08:31;14.13;;;8.88;;
61903;SDS011;47857;52.270;6.804;2023-04-06T05:10:57;16.38;;;9.50;;
61903;SDS011;47857;52.270;6.804;2023-04-06T05:13:23;16.85;;;9.55;;
61903;SDS011;47857;52.270;6.804;2023-04-06T05:15:50;18.33;;;9.45;;
61903;SDS011;47857;52.270;6.804;2023-04-06T05:18:25;13.43;;;9.40;;
61903;SDS011;47857;52.270;6.804;2023-04-06T05:20:52;15.02;;;9.43;;
61903;SDS011;47857;52.270;6.804;2023-04-06T05:23:22;15.80;;;9.77;;
61903;SDS011;47857;52.270;6.804;2023-04-06T05:25:49;18.65;;;9.82;;
61903;SDS011;47857;52.270;6.804;2023-04-06T05:28:20;15.38;;;9.20;;
61903;SDS011;47857;52.270;6.804;2023-04-06T05:30:46;21.00;;;9.73;;
61903;SDS011;47857;52.270;6.804;2023-04-06T05:33:13;16.48;;;9.13;;
61903;SDS011;47857;52.270;6.804;2023-04-06T05:35:54;13.80;;;8.77;;
61903;SDS011;47857;52.270;6.804;2023-04-06T05:38:20;16.80;;;9.98;;
61903;SDS011;47857;52.270;6.804;2023-04-06T05:40:45;17.02;;;9.65;;
61903;SDS011;47857;52.270;6.804;2023-04-06T05:43:15;16.35;;;9.40;;
61903;SDS011;47857;52.270;6.804;2023-04-06T05:45:44;15.55;;;9.32;;
61903;SDS011;47857;52.270;6.804;2023-04-06T05:48:10;15.55;;;9.15;;
61903;SDS011;47857;52.270;6.804;2023-04-06T05:50:36;15.10;;;9.38;;
61903;SDS011;47857;52.270;6.804;2023-04-06T05:53:02;14.40;;;9.70;;
61903;SDS011;47857;52.270;6.804;2023-04-06T05:55:34;15.27;;;9.43;;
61903;SDS011;47857;52.270;6.804;2023-04-06T05:58:11;15.90;;;9.77;;
61903;SDS011;47857;52.270;6.804;2023-04-06T06:00:37;15.85;;;9.43;;
61903;SDS011;47857;52.270;6.804;2023-04-06T06:03:06;18.27;;;10.40;;
61903;SDS011;47857;52.270;6.804;2023-04-06T06:05:34;19.17;;;9.52;;
61903;SDS011;47857;52.270;6.804;2023-04-06T06:08:07;15.02;;;9.82;;
61903;SDS011;47857;52.270;6.804;2023-04-06T06:10:33;18.23;;;10.30;;
61903;SDS011;47857;52.270;6.804;2023-04-06T06:12:59;16.55;;;10.18;;
61903;SDS011;47857;52.270;6.804;2023-04-06T06:15:26;13.07;;;9.45;;
61903;SDS011;47857;52.270;6.804;2023-04-06T06:17:51;17.45;;;10.43;;
61903;SDS011;47857;52.270;6.804;2023-04-06T06:20:17;18.60;;;10.70;;
61903;SDS011;47857;52.270;6.804;2023-04-06T06:22:43;21.60;;;10.98;;
61903;SDS011;47857;52.270;6.804;2023-04-06T06:25:14;24.67;;;11.80;;
61903;SDS011;47857;52.270;6.804;2023-04-06T06:27:41;16.52;;;11.05;;
61903;SDS011;47857;52.270;6.804;2023-04-06T06:30:07;15.68;;;10.57;;
61903;SDS011;47857;52.270;6.804;2023-04-06T06:32:34;21.52;;;11.13;;
61903;SDS011;47857;52.270;6.804;2023-04-06T06:35:00;18.48;;;10.77;;
61903;SDS011;47857;52.270;6.804;2023-04-06T06:37:27;19.52;;;11.05;;
61903;SDS011;47857;52.270;6.804;2023-04-06T06:39:52;15.95;;;10.88;;
61903;SDS011;47857;52.270;6.804;2023-04-06T06:42:19;19.20;;;11.05;;
61903;SDS011;47857;52.270;6.804;2023-04-06T06:45:01;16.15;;;11.20;;
61903;SDS011;47857;52.270;6.804;2023-04-06T06:47:27;21.05;;;11.68;;
61903;SDS011;47857;52.270;6.804;2023-04-06T06:49:53;19.33;;;11.88;;
61903;SDS011;47857;52.270;6.804;2023-04-06T06:52:18;18.00;;;11.77;;
61903;SDS011;47857;52.270;6.804;2023-04-06T06:54:44;19.90;;;12.32;;
61903;SDS011;47857;52.270;6.804;2023-04-06T06:57:09;21.42;;;11.73;;
61903;SDS011;47857;52.270;6.804;2023-04-06T06:59:36;20.50;;;12.13;;
61903;SDS011;47857;52.270;6.804;2023-04-06T07:02:01;20.33;;;11.88;;
61903;SDS011;47857;52.270;6.804;2023-04-06T07:04:27;21.40;;;12.15;;
61903;SDS011;47857;52.270;6.804;2023-04-06T07:06:52;20.83;;;11.57;;
61903;SDS011;47857;52.270;6.804;2023-04-06T07:09:18;20.25;;;11.90;;
61903;SDS011;47857;52.270;6.804;2023-04-06T07:11:44;22.02;;;12.30;;
61903;SDS011;47857;52.270;6.804;2023-04-06T07:14:10;19.80;;;11.85;;
61903;SDS011;47857;52.270;6.804;2023-04-06T07:16:37;18.38;;;11.68;;
61903;SDS011;47857;52.270;6.804;2023-04-06T07:19:03;19.17;;;11.85;;
61903;SDS011;47857;52.270;6.804;2023-04-06T07:21:29;21.23;;;11.65;;
61903;SDS011;47857;52.270;6.804;2023-04-06T07:23:55;19.60;;;11.82;;
61903;SDS011;47857;52.270;6.804;2023-04-06T07:26:21;20.10;;;11.98;;
61903;SDS011;47857;52.270;6.804;2023-04-06T07:28:46;24.33;;;12.35;;
61903;SDS011;47857;52.270;6.804;2023-04-06T07:31:12;18.40;;;12.35;;
61903;SDS011;47857;52.270;6.804;2023-04-06T07:33:38;22.58;;;12.23;;
61903;SDS011;47857;52.270;6.804;2023-04-06T07:36:03;59.88;;;30.75;;
61903;SDS011;47857;52.270;6.804;2023-04-06T07:38:30;31.63;;;14.90;;
61903;SDS011;47857;52.270;6.804;2023-04-06T07:40:55;23.88;;;13.73;;
61903;SDS011;47857;52.270;6.804;2023-04-06T07:43:21;19.63;;;12.07;;
61903;SDS011;47857;52.270;6.804;2023-04-06T07:45:48;20.10;;;12.02;;
61903;SDS011;47857;52.270;6.804;2023-04-06T07:48:15;21.95;;;12.48;;
61903;SDS011;47857;52.270;6.804;2023-04-06T07:50:41;20.63;;;12.15;;
61903;SDS011;47857;52.270;6.804;2023-04-06T07:53:08;22.67;;;12.48;;
61903;SDS011;47857;52.270;6.804;2023-04-06T07:55:34;20.30;;;12.80;;
61903;SDS011;47857;52.270;6.804;2023-04-06T07:58:00;19.55;;;12.02;;
61903;SDS011;47857;52.270;6.804;2023-04-06T08:00:25;20.15;;;11.80;;
61903;SDS011;47857;52.270;6.804;2023-04-06T08:02:51;19.38;;;12.10;;
61903;SDS011;47857;52.270;6.804;2023-04-06T08:05:16;22.77;;;13.07;;
61903;SDS011;47857;52.270;6.804;2023-04-06T08:07:43;22.27;;;13.15;;
61903;SDS011;47857;52.270;6.804;2023-04-06T08:10:08;23.98;;;12.55;;
61903;SDS011;47857;52.270;6.804;2023-04-06T08:12:34;24.20;;;12.70;;
61903;SDS011;47857;52.270;6.804;2023-04-06T08:15:00;19.73;;;12.88;;
61903;SDS011;47857;52.270;6.804;2023-04-06T08:17:27;20.02;;;12.90;;
61903;SDS011;47857;52.270;6.804;2023-04-06T08:19:55;22.35;;;12.23;;
61903;SDS011;47857;52.270;6.804;2023-04-06T08:22:20;23.17;;;12.48;;
61903;SDS011;47857;52.270;6.804;2023-04-06T08:24:46;22.38;;;12.48;;
61903;SDS011;47857;52.270;6.804;2023-04-06T08:27:11;19.88;;;12.13;;
61903;SDS011;47857;52.270;6.804;2023-04-06T08:29:39;22.98;;;12.75;;
61903;SDS011;47857;52.270;6.804;2023-04-06T08:32:04;22.60;;;13.13;;
61903;SDS011;47857;52.270;6.804;2023-04-06T08:34:34;24.40;;;13.45;;
61903;SDS011;47857;52.270;6.804;2023-04-06T08:37:00;21.83;;;12.38;;
61903;SDS011;47857;52.270;6.804;2023-04-06T08:39:25;22.75;;;12.18;;
61903;SDS011;47857;52.270;6.804;2023-04-06T08:41:53;19.42;;;12.75;;
61903;SDS011;47857;52.270;6.804;2023-04-06T08:44:22;18.58;;;12.55;;
61903;SDS011;47857;52.270;6.804;2023-04-06T08:46:47;21.63;;;12.43;;
61903;SDS011;47857;52.270;6.804;2023-04-06T08:49:15;20.77;;;12.27;;
61903;SDS011;47857;52.270;6.804;2023-04-06T08:51:41;19.83;;;12.70;;
61903;SDS011;47857;52.270;6.804;2023-04-06T08:54:07;20.33;;;12.63;;
61903;SDS011;47857;52.270;6.804;2023-04-06T08:56:33;20.50;;;13.20;;
61903;SDS011;47857;52.270;6.804;2023-04-06T08:59:01;23.40;;;12.70;;
61903;SDS011;47857;52.270;6.804;2023-04-06T09:01:28;21.98;;;13.15;;
61903;SDS011;47857;52.270;6.804;2023-04-06T09:03:55;23.75;;;13.48;;
61903;SDS011;47857;52.270;6.804;2023-04-06T09:06:25;19.55;;;13.85;;
61903;SDS011;47857;52.270;6.804;2023-04-06T09:08:52;21.13;;;13.25;;
61903;SDS011;47857;52.270;6.804;2023-04-06T09:11:18;20.30;;;13.50;;
61903;SDS011;47857;52.270;6.804;2023-04-06T09:13:45;19.42;;;13.25;;
61903;SDS011;47857;52.270;6.804;2023-04-06T09:16:12;24.63;;;13.73;;
61903;SDS011;47857;52.270;6.804;2023-04-06T09:18:37;22.08;;;13.73;;
61903;SDS011;47857;52.270;6.804;2023-04-06T09:21:04;18.95;;;13.35;;
61903;SDS011;47857;52.270;6.804;2023-04-06T09:23:30;23.92;;;13.77;;
61903;SDS011;47857;52.270;6.804;2023-04-06T09:26:30;19.63;;;12.95;;
61903;SDS011;47857;52.270;6.804;2023-04-06T09:28:49;19.27;;;12.85;;
61903;SDS011;47857;52.270;6.804;2023-04-06T09:31:17;21.35;;;13.23;;
61903;SDS011;47857;52.270;6.804;2023-04-06T09:33:47;20.25;;;13.45;;
61903;SDS011;47857;52.270;6.804;2023-04-06T09:36:13;22.33;;;13.50;;
61903;SDS011;47857;52.270;6.804;2023-04-06T09:39:00;39.53;;;23.17;;
61903;SDS011;47857;52.270;6.804;2023-04-06T09:41:34;22.15;;;14.75;;
61903;SDS011;47857;52.270;6.804;2023-04-06T09:46:35;21.45;;;13.90;;
61903;SDS011;47857;52.270;6.804;2023-04-06T09:49:03;22.92;;;14.25;;
61903;SDS011;47857;52.270;6.804;2023-04-06T09:51:30;22.35;;;13.88;;
61903;SDS011;47857;52.270;6.804;2023-04-06T09:54:03;22.73;;;14.60;;
61903;SDS011;47857;52.270;6.804;2023-04-06T09:56:31;20.58;;;14.20;;
61903;SDS011;47857;52.270;6.804;2023-04-06T09:59:05;22.15;;;14.00;;
61903;SDS011;47857;52.270;6.804;2023-04-06T10:01:34;23.13;;;14.38;;
61903;SDS011;47857;52.270;6.804;2023-04-06T10:06:51;23.98;;;13.98;;
61903;SDS011;47857;52.270;6.804;2023-04-06T10:09:18;19.55;;;14.38;;
61903;SDS011;47857;52.270;6.804;2023-04-06T10:11:44;22.23;;;14.32;;
61903;SDS011;47857;52.270;6.804;2023-04-06T10:14:10;21.70;;;14.75;;
61903;SDS011;47857;52.270;6.804;2023-04-06T10:16:37;21.17;;;14.88;;
61903;SDS011;47857;52.270;6.804;2023-04-06T10:19:06;21.55;;;15.30;;
61903;SDS011;47857;52.270;6.804;2023-04-06T10:21:35;24.90;;;16.27;;
61903;SDS011;47857;52.270;6.804;2023-04-06T10:24:01;25.15;;;15.32;;
61903;SDS011;47857;52.270;6.804;2023-04-06T10:26:27;28.73;;;15.40;;
61903;SDS011;47857;52.270;6.804;2023-04-06T10:28:53;22.73;;;15.75;;
61903;SDS011;47857;52.270;6.804;2023-04-06T10:31:26;21.50;;;15.00;;
61903;SDS011;47857;52.270;6.804;2023-04-06T10:33:55;24.23;;;15.80;;
61903;SDS011;47857;52.270;6.804;2023-04-06T10:36:26;22.92;;;15.93;;
61903;SDS011;47857;52.270;6.804;2023-04-06T10:38:53;22.55;;;15.95;;
61903;SDS011;47857;52.270;6.804;2023-04-06T10:41:21;26.30;;;15.25;;
61903;SDS011;47857;52.270;6.804;2023-04-06T10:43:54;21.50;;;15.20;;
61903;SDS011;47857;52.270;6.804;2023-04-06T10:46:24;20.80;;;14.98;;
61903;SDS011;47857;52.270;6.804;2023-04-06T10:48:51;24.02;;;14.85;;
61903;SDS011;47857;52.270;6.804;2023-04-06T10:51:17;21.80;;;15.00;;
61903;SDS011;47857;52.270;6.804;2023-04-06T10:53:48;23.83;;;15.90;;
61903;SDS011;47857;52.270;6.804;2023-04-06T10:56:15;23.17;;;15.50;;
61903;SDS011;47857;52.270;6.804;2023-04-06T10:58:45;24.55;;;15.77;;
61903;SDS011;47857;52.270;6.804;2023-04-06T11:01:17;23.63;;;16.15;;
61903;SDS011;47857;52.270;6.804;2023-04-06T11:03:47;24.65;;;16.80;;
61903;SDS011;47857;52.270;6.804;2023-04-06T11:08:50;25.25;;;15.60;;
61903;SDS011;47857;52.270;6.804;2023-04-06T11:11:17;23.60;;;16.13;;
61903;SDS011;47857;52.270;6.804;2023-04-06T11:13:45;23.17;;;15.70;;
61903;SDS011;47857;52.270;6.804;2023-04-06T11:16:14;22.73;;;15.77;;
61903;SDS011;47857;52.270;6.804;2023-04-06T11:18:59;20.75;;;15.82;;
61903;SDS011;47857;52.270;6.804;2023-04-06T11:24:04;22.27;;;15.93;;
61903;SDS011;47857;52.270;6.804;2023-04-06T11:26:40;22.63;;;15.45;;
61903;SDS011;47857;52.270;6.804;2023-04-06T11:29:09;26.95;;;17.85;;
61903;SDS011;47857;52.270;6.804;2023-04-06T11:31:45;23.17;;;16.30;;
61903;SDS011;47857;52.270;6.804;2023-04-06T11:34:12;28.80;;;17.55;;
61903;SDS011;47857;52.270;6.804;2023-04-06T11:36:42;23.45;;;15.82;;
61903;SDS011;47857;52.270;6.804;2023-04-06T11:39:09;26.98;;;16.77;;
61903;SDS011;47857;52.270;6.804;2023-04-06T11:41:35;25.63;;;16.00;;
61903;SDS011;47857;52.270;6.804;2023-04-06T11:44:01;23.95;;;16.42;;
61903;SDS011;47857;52.270;6.804;2023-04-06T11:46:28;22.30;;;15.77;;
61903;SDS011;47857;52.270;6.804;2023-04-06T11:48:57;23.63;;;15.70;;
61903;SDS011;47857;52.270;6.804;2023-04-06T11:51:23;24.48;;;15.50;;
61903;SDS011;47857;52.270;6.804;2023-04-06T11:53:49;21.55;;;15.25;;
61903;SDS011;47857;52.270;6.804;2023-04-06T11:56:30;27.83;;;15.40;;
61903;SDS011;47857;52.270;6.804;2023-04-06T11:58:56;24.13;;;15.80;;
61903;SDS011;47857;52.270;6.804;2023-04-06T12:01:25;23.50;;;15.43;;
61903;SDS011;47857;52.270;6.804;2023-04-06T12:03:51;25.63;;;15.80;;
61903;SDS011;47857;52.270;6.804;2023-04-06T12:06:17;24.13;;;15.85;;
61903;SDS011;47857;52.270;6.804;2023-04-06T12:08:42;27.05;;;15.73;;
61903;SDS011;47857;52.270;6.804;2023-04-06T12:11:08;25.67;;;15.45;;
61903;SDS011;47857;52.270;6.804;2023-04-06T12:13:34;23.27;;;15.90;;
61903;SDS011;47857;52.270;6.804;2023-04-06T12:15:59;23.88;;;15.75;;
61903;SDS011;47857;52.270;6.804;2023-04-06T12:18:25;28.58;;;16.15;;
61903;SDS011;47857;52.270;6.804;2023-04-06T12:20:51;27.30;;;18.33;;
61903;SDS011;47857;52.270;6.804;2023-04-06T12:23:17;24.05;;;16.25;;
61903;SDS011;47857;52.270;6.804;2023-04-06T12:25:44;25.13;;;16.13;;
61903;SDS011;47857;52.270;6.804;2023-04-06T12:28:09;26.02;;;16.27;;
61903;SDS011;47857;52.270;6.804;2023-04-06T12:30:35;26.05;;;16.17;;
61903;SDS011;47857;52.270;6.804;2023-04-06T12:33:00;27.77;;;17.38;;
61903;SDS011;47857;52.270;6.804;2023-04-06T12:35:26;28.17;;;17.30;;
61903;SDS011;47857;52.270;6.804;2023-04-06T12:37:52;28.17;;;17.75;;
61903;SDS011;47857;52.270;6.804;2023-04-06T12:40:18;30.25;;;17.77;;
61903;SDS011;47857;52.270;6.804;2023-04-06T12:42:43;23.55;;;16.95;;
61903;SDS011;47857;52.270;6.804;2023-04-06T12:45:10;29.98;;;18.17;;
61903;SDS011;47857;52.270;6.804;2023-04-06T12:47:36;23.98;;;17.90;;
61903;SDS011;47857;52.270;6.804;2023-04-06T12:50:03;27.58;;;17.67;;
61903;SDS011;47857;52.270;6.804;2023-04-06T12:52:32;29.98;;;18.02;;
61903;SDS011;47857;52.270;6.804;2023-04-06T12:55:00;27.48;;;17.73;;
61903;SDS011;47857;52.270;6.804;2023-04-06T12:57:27;24.40;;;17.20;;
61903;SDS011;47857;52.270;6.804;2023-04-06T12:59:52;25.08;;;17.98;;
61903;SDS011;47857;52.270;6.804;2023-04-06T13:02:18;27.38;;;18.00;;
61903;SDS011;47857;52.270;6.804;2023-04-06T13:04:45;26.67;;;17.77;;
61903;SDS011;47857;52.270;6.804;2023-04-06T13:07:11;24.58;;;16.83;;
61903;SDS011;47857;52.270;6.804;2023-04-06T13:09:36;23.25;;;16.58;;
61903;SDS011;47857;52.270;6.804;2023-04-06T13:12:02;25.17;;;16.88;;
61903;SDS011;47857;52.270;6.804;2023-04-06T13:14:28;23.73;;;16.88;;
61903;SDS011;47857;52.270;6.804;2023-04-06T13:16:53;25.58;;;16.27;;
61903;SDS011;47857;52.270;6.804;2023-04-06T13:19:19;22.45;;;15.63;;
61903;SDS011;47857;52.270;6.804;2023-04-06T13:21:45;21.95;;;15.38;;
61903;SDS011;47857;52.270;6.804;2023-04-06T13:24:11;23.73;;;15.73;;
61903;SDS011;47857;52.270;6.804;2023-04-06T13:26:36;22.45;;;14.55;;
61903;SDS011;47857;52.270;6.804;2023-04-06T13:29:02;23.52;;;14.43;;
61903;SDS011;47857;52.270;6.804;2023-04-06T13:31:28;26.63;;;16.88;;
61903;SDS011;47857;52.270;6.804;2023-04-06T13:33:55;29.25;;;18.17;;
61903;SDS011;47857;52.270;6.804;2023-04-06T13:36:20;25.92;;;16.77;;
61903;SDS011;47857;52.270;6.804;2023-04-06T13:38:46;19.05;;;12.38;;
61903;SDS011;47857;52.270;6.804;2023-04-06T13:41:22;17.83;;;11.93;;
61903;SDS011;47857;52.270;6.804;2023-04-06T13:43:49;22.77;;;14.63;;
61903;SDS011;47857;52.270;6.804;2023-04-06T13:46:15;18.38;;;11.35;;
61903;SDS011;47857;52.270;6.804;2023-04-06T13:48:41;15.32;;;10.15;;
61903;SDS011;47857;52.270;6.804;2023-04-06T13:51:11;16.52;;;10.60;;
61903;SDS011;47857;52.270;6.804;2023-04-06T13:53:37;18.63;;;10.98;;
61903;SDS011;47857;52.270;6.804;2023-04-06T13:56:03;18.25;;;11.75;;
61903;SDS011;47857;52.270;6.804;2023-04-06T13:58:29;20.98;;;12.98;;
61903;SDS011;47857;52.270;6.804;2023-04-06T14:01:01;18.27;;;11.85;;
61903;SDS011;47857;52.270;6.804;2023-04-06T14:03:31;19.92;;;12.68;;
61903;SDS011;47857;52.270;6.804;2023-04-06T14:05:56;19.60;;;11.88;;
61903;SDS011;47857;52.270;6.804;2023-04-06T14:08:22;19.33;;;12.23;;
61903;SDS011;47857;52.270;6.804;2023-04-06T14:10:48;20.48;;;11.38;;
61903;SDS011;47857;52.270;6.804;2023-04-06T14:13:13;13.80;;;9.93;;
61903;SDS011;47857;52.270;6.804;2023-04-06T14:15:39;18.20;;;10.57;;
61903;SDS011;47857;52.270;6.804;2023-04-06T14:18:04;17.80;;;11.35;;
61903;SDS011;47857;52.270;6.804;2023-04-06T14:20:34;15.63;;;11.48;;
61903;SDS011;47857;52.270;6.804;2023-04-06T14:23:00;27.10;;;16.55;;
61903;SDS011;47857;52.270;6.804;2023-04-06T14:25:26;18.70;;;12.48;;
61903;SDS011;47857;52.270;6.804;2023-04-06T14:27:51;22.05;;;13.18;;
61903;SDS011;47857;52.270;6.804;2023-04-06T14:30:17;23.65;;;13.95;;
61903;SDS011;47857;52.270;6.804;2023-04-06T14:32:43;21.83;;;14.18;;
61903;SDS011;47857;52.270;6.804;2023-04-06T14:35:09;18.70;;;13.60;;
61903;SDS011;47857;52.270;6.804;2023-04-06T14:37:35;18.73;;;12.77;;
61903;SDS011;47857;52.270;6.804;2023-04-06T14:40:01;22.08;;;12.70;;